Enumclaw, WA

3:19 AM PDT on April 30, 2017 (GMT -0700)
Mt. Meadows | | Change Station

Elev 734 ft 47.19 °N, 122.00 °W | Updated 22 seconds ago

Overcast
Overcast
48.4 °F
Feels Like 48 °F
N
2.0
Wind Variable Wind from SW

Today
High -- | Low -- °F
--% Chance of Precip.
Yesterday
High -- | Low -- °F
Precip. -- in
Pressure 30.14 in
Visibility 10.0 miles
Clouds Mostly Cloudy 1500 ft
Mostly Cloudy 2200 ft
Windchill 48 °F
Dew Point 46 °F
Humidity 93%
Rainfall 0.02 in
Snow Depth Not available.
5:52 AM 8:18 PM
Waxing Crescent, 21% visible
METAR KRNT 300953Z AUTO 18009KT 10SM BKN015 BKN022 11/09 A3012 RMK AO2 SLP205 T01060094 $
Pressure 30.14 in
Visibility 10.0 miles
Clouds Mostly Cloudy 1500 ft
Mostly Cloudy 2200 ft
Windchill 48 °F
Dew Point 46 °F
Humidity 93%
Rainfall 0.02 in
Snow Depth Not available.
5:52 AM 8:18 PM
Waxing Crescent, 21% visible
METAR KRNT 300953Z AUTO 18009KT 10SM BKN015 BKN022 11/09 A3012 RMK AO2 SLP205 T01060094 $

Get Severe Weather Alerts

Thanks for signing up!

Be on the lookout for a verification email in your inbox.

You'll start receiving the daily forecast at 8 AM.

×

10-Day Weather Forecast

Almanac

Astronomy

Apr. 30, 2017 Rise Set
Actual Time
Civil Twilight
Nautical Twilight
Astronomical Twilight
Moon
Length of Visible Light
Length of Day
Tomorrow will be .
, % of the Moon is Illuminated

Today's Extremes

State Highs State Lows

Community

WunderPhotos

WunderBlog® & News

Nearby

Air Quality

  Air Quality AQ Index Pollutant
Not available.

Snow Depth

Station Depth Elevation

Earthquake Activity

City Distance Mag. Time & Date
Minimum magnitude displayed is 2.5.

Coastal Water Temperatures

Place Temperature

Stations

Nearby Weather Stations

Station Location Temp. Windchill Dew Point Humidity Wind Precip. Elev Updated Type
                   

Watches & Warnings

There are currently no watches in effect.